Time;durP1;ratioP1;P1;durP2;ratioP2;P2;SDS_P1;SDS_P2;PMS_P1;PMS_P2;Temp;Humidity;BMP_temperature;BMP_pressure;BME280_temperature;BME280_humidity;BME280_pressure;Samples;Min_cycle;Max_cycle;Signal;HPM_P1;HPM_P2
2022/06/18 00:00:53;;;;;;;1999.90;999.90;;;20.70;1.00;;;;;;5072747;28;20187;-61
2022/06/18 00:03:21;;;;;;;1999.90;999.90;;;20.60;1.00;;;;;;5072299;28;20231;-61
2022/06/18 00:05:50;;;;;;;1999.90;999.90;;;20.60;1.00;;;;;;5072973;28;20198;-61
2022/06/18 00:08:20;;;;;;;1999.90;999.90;;;20.60;1.00;;;;;;5072553;28;20219;-61
2022/06/18 00:10:49;;;;;;;1999.90;999.90;;;20.60;1.00;;;;;;5072740;28;20222;-61
2022/06/18 00:13:42;;;;;;;1999.90;999.90;;;20.50;1.00;;;;;;5071520;28;20205;-61
2022/06/18 00:16:11;;;;;;;1999.90;999.90;;;20.40;1.00;;;;;;5072192;28;20171;-61
2022/06/18 00:18:38;;;;;;;1999.90;999.90;;;20.50;1.00;;;;;;5072779;28;20193;-61
2022/06/18 00:21:07;;;;;;;1999.90;999.90;;;20.30;2.60;;;;;;5072454;28;20618;-61
2022/06/18 00:23:38;;;;;;;1999.90;999.90;;;20.50;74.00;;;;;;5072752;28;20205;-61
2022/06/18 00:26:05;;;;;;;1999.90;999.90;;;20.50;1.00;;;;;;5072157;28;20228;-61
2022/06/18 00:28:33;;;;;;;1999.90;999.90;;;20.40;48.00;;;;;;5072005;28;20222;-61
2022/06/18 00:31:00;;;;;;;1999.90;999.90;;;20.40;1.00;;;;;;5072227;28;20303;-61
2022/06/18 00:33:28;;;;;;;1999.90;999.90;;;20.40;1.00;;;;;;5071522;28;20217;-60
2022/06/18 00:36:02;;;;;;;1999.90;999.90;;;20.40;67.80;;;;;;5071951;28;20260;-61
2022/06/18 00:38:32;;;;;;;1999.90;999.90;;;20.60;1.00;;;;;;5072330;28;20258;-61
2022/06/18 00:41:01;;;;;;;1999.90;999.90;;;20.50;1.00;;;;;;5072130;28;20525;-61
2022/06/18 00:43:33;;;;;;;1999.90;999.90;;;20.30;1.00;;;;;;5071844;28;20249;-61
2022/06/18 00:46:06;;;;;;;1999.90;999.90;;;20.40;4.00;;;;;;5072085;28;20192;-61
2022/06/18 00:48:40;;;;;;;1999.90;999.90;;;20.80;1.00;;;;;;5072323;28;20199;-61
2022/06/18 00:51:15;;;;;;;1999.90;999.90;;;20.70;1.00;;;;;;5072057;28;20178;-61
2022/06/18 00:53:48;;;;;;;1999.90;999.90;;;20.60;1.00;;;;;;5071170;28;20546;-61
2022/06/18 00:56:21;;;;;;;1999.90;999.90;;;20.50;7.30;;;;;;5072084;28;20190;-61
2022/06/18 00:58:54;;;;;;;1999.90;999.90;;;20.40;99.90;;;;;;5071713;28;20192;-61
2022/06/18 01:01:30;;;;;;;1999.90;999.90;;;20.40;99.90;;;;;;5071904;28;20198;-61
2022/06/18 01:03:58;;;;;;;1999.90;999.90;;;20.40;99.90;;;;;;5071244;28;20666;-61
2022/06/18 01:06:30;;;;;;;1999.90;999.90;;;20.50;99.90;;;;;;5072257;28;20218;-61
2022/06/18 01:09:02;;;;;;;1999.90;999.90;;;20.60;99.90;;;;;;5071964;28;20577;-61
2022/06/18 01:11:34;;;;;;;1999.90;999.90;;;20.80;1.00;;;;;;5071445;28;20601;-61
2022/06/18 01:14:04;;;;;;;1999.90;999.90;;;20.90;1.00;;;;;;5071903;28;20190;-61
2022/06/18 01:16:32;;;;;;;1999.90;999.90;;;21.00;99.90;;;;;;5071661;28;20646;-61
2022/06/18 01:19:00;;;;;;;1999.90;999.90;;;21.20;1.00;;;;;;5071954;28;20243;-61
2022/06/18 01:21:35;;;;;;;1999.90;999.90;;;21.30;1.00;;;;;;5070956;28;20202;-61
2022/06/18 01:24:11;;;;;;;1999.90;999.90;;;21.40;1.00;;;;;;5070403;28;20186;-61
2022/06/18 01:26:39;;;;;;;1999.90;999.90;;;21.50;1.00;;;;;;5070860;28;20323;-61
2022/06/18 01:29:07;;;;;;;1999.90;999.90;;;21.60;1.00;;;;;;5071183;28;20227;-60
2022/06/18 01:31:34;;;;;;;1999.90;999.90;;;21.70;99.90;;;;;;5071959;28;20191;-61
2022/06/18 01:34:01;;;;;;;1999.90;999.90;;;21.60;99.90;;;;;;5071942;28;20202;-61
2022/06/18 01:36:32;;;;;;;1999.90;999.90;;;21.60;1.00;;;;;;5071579;28;20203;-61
2022/06/18 01:39:00;;;;;;;1999.90;999.90;;;21.60;1.00;;;;;;5070826;28;20187;-61
2022/06/18 01:41:51;;;;;;;1999.90;999.90;;;21.60;1.00;;;;;;5071306;28;20199;-61
2022/06/18 01:44:24;;;;;;;1999.90;999.90;;;21.60;99.90;;;;;;5071849;28;20193;-61
2022/06/18 01:46:54;;;;;;;1999.90;999.90;;;21.50;1.00;;;;;;5071973;28;20546;-61
2022/06/18 01:49:26;;;;;;;1999.90;999.90;;;21.50;1.00;;;;;;5071316;28;20218;-61
2022/06/18 01:51:55;;;;;;;1999.90;999.90;;;21.40;99.90;;;;;;5071019;28;20182;-61
2022/06/18 01:54:26;;;;;;;1999.90;999.90;;;21.40;99.90;;;;;;5071682;28;20220;-61
2022/06/18 01:57:00;;;;;;;1999.90;999.90;;;21.30;99.90;;;;;;5070607;28;20624;-61
2022/06/18 01:59:31;;;;;;;1999.90;999.90;;;21.40;1.00;;;;;;5071422;28;20178;-61
2022/06/18 02:01:58;;;;;;;1999.90;999.90;;;21.40;1.00;;;;;;5069633;28;20217;-61
2022/06/18 02:04:28;;;;;;;1999.90;999.90;;;21.30;99.90;;;;;;5070783;28;20187;-60
2022/06/18 02:06:55;;;;;;;1999.90;999.90;;;21.30;99.90;;;;;;5075259;28;20225;-61
2022/06/18 02:09:36;;;;;;;1999.90;999.90;;;21.40;1.00;;;;;;5075219;28;20254;-61
2022/06/18 02:12:07;;;;;;;1999.90;999.90;;;21.50;99.90;;;;;;5075167;28;20261;-61
2022/06/18 02:14:36;;;;;;;1999.90;999.90;;;21.40;1.00;;;;;;5074553;28;20628;-61
2022/06/18 02:17:07;;;;;;;1999.90;999.90;;;21.40;1.00;;;;;;5075105;28;20252;-61
2022/06/18 02:19:36;;;;;;;1999.90;999.90;;;21.40;1.00;;;;;;5075217;28;20171;-61
2022/06/18 02:22:07;;;;;;;1999.90;999.90;;;21.40;1.00;;;;;;5074510;28;20199;-61
2022/06/18 02:24:34;;;;;;;1999.90;999.90;;;21.30;65.30;;;;;;5074257;28;20252;-62
2022/06/18 02:27:02;;;;;;;1999.90;999.90;;;21.30;99.90;;;;;;5074168;28;20199;-61
2022/06/18 02:29:32;;;;;;;1999.90;999.90;;;21.30;99.90;;;;;;5073963;28;20219;-61
2022/06/18 02:32:02;;;;;;;1999.90;999.90;;;21.20;1.00;;;;;;5074919;28;20203;-61
2022/06/18 02:34:31;;;;;;;1999.90;999.90;;;21.10;99.90;;;;;;5074527;28;20191;-61
2022/06/18 02:37:01;;;;;;;1999.90;999.90;;;21.00;1.00;;;;;;5074776;28;20203;-61
2022/06/18 02:39:33;;;;;;;1999.90;999.90;;;21.00;99.90;;;;;;5073585;28;20320;-61
2022/06/18 02:42:05;;;;;;;1999.90;999.90;;;21.00;1.00;;;;;;5074276;28;20183;-61
2022/06/18 02:44:34;;;;;;;1999.90;999.90;;;21.00;99.90;;;;;;5074430;28;20647;-61
2022/06/18 02:47:05;;;;;;;1999.90;999.90;;;21.10;1.00;;;;;;5074630;28;20229;-61
2022/06/18 02:49:34;;;;;;;1999.90;999.90;;;21.00;99.90;;;;;;5074102;28;20305;-61
2022/06/18 02:52:02;;;;;;;1999.90;999.90;;;20.90;1.00;;;;;;5073697;28;20210;-61
2022/06/18 02:54:29;;;;;;;1999.90;999.90;;;20.80;99.90;;;;;;5073465;28;20205;-61
2022/06/18 02:56:59;;;;;;;1999.90;999.90;;;20.90;1.00;;;;;;5074453;28;20601;-61
2022/06/18 02:59:26;;;;;;;1999.90;999.90;;;21.00;99.90;;;;;;5074449;28;20179;-61
2022/06/18 03:01:54;;;;;;;1999.90;999.90;;;20.90;1.00;;;;;;5073435;28;20236;-61
2022/06/18 03:04:22;;;;;;;1999.90;999.90;;;20.90;1.00;;;;;;5074390;28;20179;-61
2022/06/18 03:06:49;;;;;;;1999.90;999.90;;;20.90;1.00;;;;;;5074048;28;20213;-60
2022/06/18 03:09:15;;;;;;;1999.90;999.90;;;20.90;1.00;;;;;;5074105;28;20270;-61
2022/06/18 03:14:41;;;;;;;1999.90;999.90;;;20.90;1.00;;;;;;4992338;28;20244;-61
2022/06/18 03:17:10;;;;;;;1999.90;999.90;;;20.80;1.00;;;;;;4992050;28;20204;-61
2022/06/18 03:19:42;;;;;;;1999.90;999.90;;;20.80;1.00;;;;;;4991790;28;20285;-61
2022/06/18 03:22:13;;;;;;;1999.90;999.90;;;20.70;1.00;;;;;;4992200;28;20533;-61
2022/06/18 03:24:41;;;;;;;1999.90;999.90;;;20.70;1.00;;;;;;4991939;28;20186;-60
2022/06/18 03:27:08;;;;;;;1999.90;999.90;;;20.60;99.90;;;;;;4992124;28;20307;-61
2022/06/18 03:29:35;;;;;;;1999.90;999.90;;;20.50;1.00;;;;;;4991127;28;20226;-61
2022/06/18 03:32:02;;;;;;;1999.90;999.90;;;20.20;99.90;;;;;;4991607;28;20674;-61
2022/06/18 03:34:30;;;;;;;1999.90;999.90;;;20.10;1.00;;;;;;4991700;28;20209;-61
2022/06/18 03:36:57;;;;;;;1999.90;999.90;;;19.80;1.00;;;;;;4991859;28;20369;-61
2022/06/18 03:39:24;;;;;;;1999.90;999.90;;;19.70;81.40;;;;;;4991624;28;20203;-61
2022/06/18 03:41:51;;;;;;;1999.90;999.90;;;19.70;99.90;;;;;;4991633;28;20204;-61
2022/06/18 03:44:18;;;;;;;1999.90;999.90;;;19.60;99.90;;;;;;4991648;28;20206;-61
2022/06/18 03:46:47;;;;;;;1999.90;999.90;;;19.60;99.90;;;;;;5069444;28;20223;-61
2022/06/18 03:49:23;;;;;;;1999.90;999.90;;;19.60;99.90;;;;;;5072772;28;20229;-61
2022/06/18 03:51:51;;;;;;;1999.90;999.90;;;19.60;99.90;;;;;;5072509;28;20187;-61
2022/06/18 03:54:18;;;;;;;1999.90;999.90;;;19.50;99.90;;;;;;5072933;28;20212;-61
2022/06/18 03:56:45;;;;;;;1999.90;999.90;;;19.50;99.90;;;;;;5073244;28;20249;-61
2022/06/18 03:59:13;;;;;;;1999.90;999.90;;;19.50;99.90;;;;;;5073134;28;20195;-60
2022/06/18 04:01:41;;;;;;;1999.90;999.90;;;19.60;99.90;;;;;;5072783;28;20561;-60
2022/06/18 04:04:08;;;;;;;1999.90;999.90;;;19.80;99.90;;;;;;5072624;28;20235;-60
2022/06/18 04:06:35;;;;;;;1999.90;999.90;;;19.90;99.90;;;;;;5073046;28;20594;-61
2022/06/18 04:09:04;;;;;;;1999.90;999.90;;;20.00;99.90;;;;;;5073015;28;20222;-60
2022/06/18 04:11:31;;;;;;;1999.90;999.90;;;20.10;99.90;;;;;;5072381;28;20210;-61
2022/06/18 04:13:59;;;;;;;1999.90;999.90;;;20.20;99.90;;;;;;5072906;28;20207;-60
2022/06/18 04:16:26;;;;;;;1999.90;999.90;;;20.30;99.90;;;;;;5072879;28;20209;-61
2022/06/18 04:18:53;;;;;;;1999.90;999.90;;;20.40;99.90;;;;;;5072660;28;20187;-61
2022/06/18 04:21:20;;;;;;;1999.90;999.90;;;20.60;99.90;;;;;;5072295;28;20579;-61
2022/06/18 04:23:47;;;;;;;1999.90;999.90;;;20.60;99.90;;;;;;5072338;28;20198;-61
2022/06/18 04:26:15;;;;;;;1999.90;999.90;;;20.60;99.90;;;;;;5072666;28;20221;-61
2022/06/18 04:28:42;;;;;;;1999.90;999.90;;;20.60;99.90;;;;;;5071421;28;20196;-61
2022/06/18 04:31:09;;;;;;;1999.90;999.90;;;20.70;99.90;;;;;;5072120;28;20636;-61
2022/06/18 04:33:36;;;;;;;1999.90;999.90;;;20.80;99.90;;;;;;5072218;28;20655;-60
2022/06/18 04:36:03;;;;;;;1999.90;999.90;;;20.90;99.90;;;;;;5072576;28;20292;-61
2022/06/18 04:38:30;;;;;;;1999.90;999.90;;;21.00;99.90;;;;;;5072083;28;20202;-61
2022/06/18 04:40:57;;;;;;;1999.90;999.90;;;21.20;99.90;;;;;;5072359;28;20187;-60
2022/06/18 04:43:26;;;;;;;1999.90;999.90;;;21.30;1.00;;;;;;5072153;28;20236;-61
2022/06/18 04:45:55;;;;;;;1999.90;999.90;;;21.40;1.00;;;;;;5072484;28;20202;-60
2022/06/18 04:48:22;;;;;;;1999.90;999.90;;;21.40;1.00;;;;;;5072327;28;20201;-61
2022/06/18 04:50:49;;;;;;;1999.90;999.90;;;21.50;1.00;;;;;;5071373;28;20604;-61
2022/06/18 04:53:16;;;;;;;1999.90;999.90;;;21.60;99.90;;;;;;5071574;28;20246;-61
2022/06/18 04:55:43;;;;;;;1999.90;999.90;;;21.70;1.00;;;;;;5071957;28;20305;-61
2022/06/18 04:58:10;;;;;;;1999.90;999.90;;;21.80;1.00;;;;;;5072022;28;20590;-61
2022/06/18 05:00:40;;;;;;;1999.90;999.90;;;21.80;1.00;;;;;;5072244;28;20198;-61
2022/06/18 05:03:07;;;;;;;1999.90;999.90;;;21.80;1.00;;;;;;5071127;28;20639;-60
2022/06/18 05:05:34;;;;;;;1999.90;999.90;;;22.00;1.00;;;;;;5072233;28;20206;-61
2022/06/18 05:08:02;;;;;;;1999.90;999.90;;;22.10;21.50;;;;;;5072204;28;20198;-61
2022/06/18 05:10:29;;;;;;;1999.90;999.90;;;22.20;99.90;;;;;;5071720;28;20918;-61
2022/06/18 05:12:56;;;;;;;1999.90;999.90;;;22.40;1.00;;;;;;5072035;28;20199;-61
2022/06/18 05:15:23;;;;;;;1999.90;999.90;;;22.50;1.00;;;;;;5071857;28;20676;-61
2022/06/18 05:17:51;;;;;;;1999.90;999.90;;;22.80;99.90;;;;;;5072160;28;20608;-61
2022/06/18 05:20:21;;;;;;;1999.90;999.90;;;22.90;1.00;;;;;;5071481;28;20217;-61
2022/06/18 05:22:49;;;;;;;1999.90;999.90;;;23.00;99.90;;;;;;5071910;28;20210;-61
2022/06/18 05:25:16;;;;;;;1999.90;999.90;;;23.40;99.90;;;;;;5072109;28;20213;-61
2022/06/18 05:27:44;;;;;;;1999.90;999.90;;;23.40;5.40;;;;;;5071993;28;20198;-61
2022/06/18 05:30:13;;;;;;;1999.90;999.90;;;23.60;30.70;;;;;;5071981;28;20563;-61
2022/06/18 05:32:40;;;;;;;1999.90;999.90;;;23.80;1.00;;;;;;5071698;28;20203;-61
2022/06/18 05:35:10;;;;;;;1999.90;999.90;;;24.00;1.00;;;;;;5071623;28;20660;-61
2022/06/18 05:37:38;;;;;;;1999.90;999.90;;;23.80;99.90;;;;;;5071954;28;20199;-62
2022/06/18 05:40:07;;;;;;;1999.90;999.90;;;23.90;1.00;;;;;;5075228;28;20187;-62
2022/06/18 05:42:35;;;;;;;1999.90;999.90;;;24.30;1.00;;;;;;5075699;28;20603;-61
2022/06/18 05:45:02;;;;;;;1999.90;999.90;;;24.20;35.40;;;;;;5075509;28;20206;-61
2022/06/18 05:47:32;;;;;;;1999.90;999.90;;;24.30;1.00;;;;;;5075750;28;20210;-61
2022/06/18 05:49:59;;;;;;;1999.90;999.90;;;24.50;99.90;;;;;;5075650;28;20211;-62
2022/06/18 05:52:29;;;;;;;1999.90;999.90;;;24.40;1.00;;;;;;5075511;28;20199;-62
2022/06/18 05:54:56;;;;;;;1999.90;999.90;;;24.50;1.00;;;;;;5075368;28;20743;-62
2022/06/18 05:57:24;;;;;;;1999.90;999.90;;;24.80;99.90;;;;;;5075557;28;20210;-62
2022/06/18 05:59:51;;;;;;;1999.90;999.90;;;24.90;99.90;;;;;;5075449;28;20194;-62
2022/06/18 06:02:20;;;;;;;1999.90;999.90;;;25.20;1.00;;;;;;5074986;28;20203;-61
2022/06/18 06:04:47;;;;;;;1999.90;999.90;;;25.10;1.00;;;;;;5075437;28;20606;-61
2022/06/18 06:07:14;;;;;;;1999.90;999.90;;;25.20;1.00;;;;;;5075390;28;20207;-62
2022/06/18 06:12:27;;;;;;;1999.90;999.90;;;25.10;99.90;;;;;;5075118;28;20179;-62
2022/06/18 06:14:55;;;;;;;1999.90;999.90;;;25.50;99.90;;;;;;5075193;28;20191;-62
2022/06/18 06:17:25;;;;;;;1999.90;999.90;;;25.70;99.90;;;;;;5074843;28;20195;-62
2022/06/18 06:19:57;;;;;;;1999.90;999.90;;;25.90;99.90;;;;;;5075027;28;20191;-61
2022/06/18 06:22:24;;;;;;;1999.90;999.90;;;25.80;1.00;;;;;;5075018;28;20205;-62
2022/06/18 06:24:52;;;;;;;1999.90;999.90;;;25.90;1.00;;;;;;5074656;28;20206;-61
2022/06/18 06:27:19;;;;;;;1999.90;999.90;;;26.00;1.00;;;;;;5075025;28;20203;-61
2022/06/18 06:29:46;;;;;;;1999.90;999.90;;;26.60;1.00;;;;;;5074854;28;20202;-61
2022/06/18 06:32:13;;;;;;;1999.90;999.90;;;26.70;1.00;;;;;;5074897;28;20199;-61
2022/06/18 06:34:40;;;;;;;1999.90;999.90;;;26.60;1.00;;;;;;5074845;28;20203;-62
2022/06/18 06:37:07;;;;;;;1999.90;999.90;;;26.30;99.90;;;;;;5074796;28;20191;-62
2022/06/18 06:39:34;;;;;;;1999.90;999.90;;;26.50;99.90;;;;;;5074406;28;20195;-62
2022/06/18 06:42:02;;;;;;;1999.90;999.90;;;26.70;99.90;;;;;;5074268;28;20636;-62
2022/06/18 06:44:29;;;;;;;1999.90;999.90;;;26.60;99.90;;;;;;5074648;28;20260;-61
2022/06/18 06:46:58;;;;;;;1999.90;999.90;;;26.70;99.90;;;;;;5074362;28;20565;-62
2022/06/18 06:49:25;;;;;;;1999.90;999.90;;;26.90;99.90;;;;;;5074462;28;20298;-62
2022/06/18 06:51:53;;;;;;;1999.90;999.90;;;27.10;99.90;;;;;;5073808;28;20260;-61
2022/06/18 06:54:20;;;;;;;1999.90;999.90;;;27.00;99.90;;;;;;5074487;28;20202;-61
2022/06/18 06:59:33;;;;;;;1999.90;999.90;;;27.10;99.90;;;;;;5074148;28;20253;-61
2022/06/18 07:02:02;;;;;;;1999.90;999.90;;;27.20;1.00;;;;;;5074160;28;20206;-60
2022/06/18 07:04:29;;;;;;;1999.90;999.90;;;27.20;13.60;;;;;;5074283;28;20297;-60
2022/06/18 07:06:57;;;;;;;1999.90;999.90;;;27.40;1.00;;;;;;5074279;28;20191;-60
2022/06/18 07:09:24;;;;;;;1999.90;999.90;;;27.60;1.00;;;;;;5074249;28;20629;-61
2022/06/18 07:11:51;;;;;;;1999.90;999.90;;;27.80;1.00;;;;;;5073768;28;20679;-61
2022/06/18 07:14:18;;;;;;;1999.90;999.90;;;27.60;1.00;;;;;;5073800;28;20206;-61
2022/06/18 07:16:51;;;;;;;1999.90;999.90;;;27.40;1.00;;;;;;5073540;28;20198;-61
2022/06/18 07:19:18;;;;;;;1999.90;999.90;;;27.60;1.00;;;;;;5071691;28;20544;-61
2022/06/18 07:21:46;;;;;;;1999.90;999.90;;;28.10;1.00;;;;;;5073236;28;20191;-61
2022/06/18 07:24:13;;;;;;;1999.90;999.90;;;27.70;1.00;;;;;;5073452;28;20201;-61
2022/06/18 07:26:40;;;;;;;1999.90;999.90;;;27.80;1.00;;;;;;5073406;28;20203;-61
2022/06/18 07:29:06;;;;;;;1999.90;999.90;;;27.90;1.00;;;;;;5073035;28;20244;-61
2022/06/18 07:31:35;;;;;;;1999.90;999.90;;;27.80;1.00;;;;;;5072975;28;20688;-60
2022/06/18 07:34:05;;;;;;;1999.90;999.90;;;27.90;1.00;;;;;;5072665;28;20191;-61
2022/06/18 07:36:33;;;;;;;1999.90;999.90;;;28.00;1.00;;;;;;5070726;28;20194;-60
2022/06/18 07:39:01;;;;;;;1999.90;999.90;;;28.10;1.00;;;;;;5073157;28;20607;-61
2022/06/18 07:41:34;;;;;;;1999.90;999.90;;;28.40;1.00;;;;;;5072543;28;20198;-61
2022/06/18 07:44:02;;;;;;;1999.90;999.90;;;28.60;1.00;;;;;;5072268;28;20189;-62
2022/06/18 07:46:30;;;;;;;1999.90;999.90;;;28.80;1.00;;;;;;5073151;28;20199;-61
2022/06/18 07:48:56;;;;;;;1999.90;999.90;;;29.20;1.00;;;;;;5073091;28;20190;-61
2022/06/18 07:51:27;;;;;;;1999.90;999.90;;;29.00;1.00;;;;;;5072501;28;20684;-62
2022/06/18 07:53:54;;;;;;;1999.90;999.90;;;29.30;1.00;;;;;;5070287;28;20226;-62
2022/06/18 07:56:21;;;;;;;1999.90;999.90;;;29.30;1.00;;;;;;5072487;28;20193;-62
2022/06/18 07:58:48;;;;;;;1999.90;999.90;;;29.40;99.90;;;;;;5072673;28;20199;-61
2022/06/18 08:01:15;;;;;;;1999.90;999.90;;;29.00;99.90;;;;;;5072712;28;20183;-61
2022/06/18 08:03:42;;;;;;;1999.90;999.90;;;29.20;99.90;;;;;;5071521;28;20280;-60
2022/06/18 08:06:10;;;;;;;1999.90;999.90;;;29.30;99.90;;;;;;5072333;28;20741;-61
2022/06/18 08:08:38;;;;;;;1999.90;999.90;;;29.60;99.90;;;;;;5072133;28;20684;-61
2022/06/18 08:11:09;;;;;;;1999.90;999.90;;;29.80;99.90;;;;;;5072323;28;20683;-61
2022/06/18 08:13:36;;;;;;;1999.90;999.90;;;29.70;99.90;;;;;;5072493;28;20226;-62
2022/06/18 08:16:03;;;;;;;1999.90;999.90;;;29.50;99.90;;;;;;5072713;28;20209;-61
2022/06/18 08:18:31;;;;;;;1999.90;999.90;;;29.40;99.90;;;;;;5072553;28;20222;-61
2022/06/18 08:21:02;;;;;;;1999.90;999.90;;;29.40;99.90;;;;;;5072199;28;20187;-61
2022/06/18 08:23:29;;;;;;;1999.90;999.90;;;29.30;99.90;;;;;;5072331;28;20236;-61
2022/06/18 08:25:57;;;;;;;1999.90;999.90;;;29.30;99.90;;;;;;5072250;28;20179;-61
2022/06/18 08:28:24;;;;;;;1999.90;999.90;;;29.30;99.90;;;;;;5072135;28;20194;-61
2022/06/18 08:30:51;;;;;;;1999.90;999.90;;;29.40;99.90;;;;;;5071910;28;20601;-62
2022/06/18 08:33:18;;;;;;;1999.90;999.90;;;29.80;99.90;;;;;;5071459;28;20679;-61
2022/06/18 08:35:45;;;;;;;1999.90;999.90;;;29.70;99.90;;;;;;5072196;28;20191;-61
2022/06/18 08:38:14;;;;;;;1999.90;999.90;;;29.90;99.90;;;;;;5071607;28;20191;-62
2022/06/18 08:41:03;;;;;;;1999.90;999.90;;;30.10;99.90;;;;;;5071622;28;20202;-62
2022/06/18 08:44:18;;;;;;;1999.90;999.90;;;30.40;99.90;;;;;;5070555;28;20187;-62
2022/06/18 08:46:55;;;;;;;1999.90;999.90;;;30.70;99.90;;;;;;5024832;28;20204;-62
2022/06/18 08:49:46;;;;;;;1999.90;999.90;;;30.20;99.90;;;;;;5028106;28;20220;-62
2022/06/18 08:52:32;;;;;;;1999.90;999.90;;;30.50;99.90;;;;;;5023315;28;20197;-62
2022/06/18 08:55:08;;;;;;;1999.90;999.90;;;30.60;99.90;;;;;;5027154;28;20184;-63
2022/06/18 08:57:41;;;;;;;1999.90;999.90;;;30.50;99.90;;;;;;5026993;28;20203;-63
2022/06/18 09:00:13;;;;;;;1999.90;999.90;;;30.40;99.90;;;;;;5029492;28;20238;-62
2022/06/18 09:02:47;;;;;;;1999.90;999.90;;;30.50;99.90;;;;;;5029246;28;20228;-61
2022/06/18 09:05:22;;;;;;;1999.90;999.90;;;31.00;99.90;;;;;;5026805;28;20201;-61
2022/06/18 09:08:18;;;;;;;1999.90;999.90;;;30.90;99.90;;;;;;5029307;28;20199;-63
2022/06/18 09:11:01;;;;;;;1999.90;999.90;;;31.20;99.90;;;;;;5024960;28;20723;-63
2022/06/18 09:13:35;;;;;;;1999.90;999.90;;;31.60;99.90;;;;;;5029064;28;20295;-63
2022/06/18 09:16:07;;;;;;;1999.90;999.90;;;31.50;99.90;;;;;;5029303;28;20203;-63
2022/06/18 09:18:37;;;;;;;1999.90;999.90;;;31.60;99.90;;;;;;5026597;28;20193;-62
2022/06/18 09:21:10;;;;;;;1999.90;999.90;;;31.40;99.90;;;;;;5030793;28;20192;-63
2022/06/18 09:23:43;;;;;;;1999.90;999.90;;;31.40;99.90;;;;;;5071739;28;20190;-62
2022/06/18 09:26:17;;;;;;;1999.90;999.90;;;31.50;99.90;;;;;;5071557;28;20424;-62
2022/06/18 09:28:54;;;;;;;1999.90;999.90;;;31.50;99.90;;;;;;5071786;28;20198;-62
2022/06/18 09:31:29;;;;;;;1999.90;999.90;;;31.40;99.90;;;;;;5069476;28;20525;-62
2022/06/18 09:34:00;;;;;;;1999.90;999.90;;;31.60;99.90;;;;;;5071208;28;20189;-62
2022/06/18 09:36:32;;;;;;;1999.90;999.90;;;31.80;99.90;;;;;;5071160;28;20195;-62
2022/06/18 09:39:07;;;;;;;1999.90;999.90;;;32.30;99.90;;;;;;5071553;28;20187;-62
2022/06/18 09:41:40;;;;;;;1999.90;999.90;;;32.00;99.90;;;;;;5071316;28;20243;-62
2022/06/18 09:44:17;;;;;;;1999.90;999.90;;;31.90;86.70;;;;;;5070839;28;20643;-63
2022/06/18 09:46:48;;;;;;;1999.90;999.90;;;32.10;47.50;;;;;;5067191;28;20578;-62
2022/06/18 09:49:15;;;;;;;1999.90;999.90;;;32.50;64.50;;;;;;5071178;28;20276;-63
2022/06/18 09:51:48;;;;;;;1999.90;999.90;;;32.60;66.30;;;;;;5071257;28;20218;-63
2022/06/18 09:54:18;;;;;;;1999.90;999.90;;;32.50;46.00;;;;;;5071918;28;20548;-64
2022/06/18 09:56:48;;;;;;;1999.90;999.90;;;32.40;76.50;;;;;;5071413;28;20206;-63
2022/06/18 09:59:19;;;;;;;1999.90;999.90;;;32.80;89.80;;;;;;5071842;28;20179;-62
2022/06/18 10:01:49;;;;;;;1999.90;999.90;;;32.30;38.60;;;;;;5071418;28;20669;-62
2022/06/18 10:07:07;;;;;;;1999.90;999.90;;;33.30;24.50;;;;;;5071288;28;20266;-62
2022/06/18 10:09:37;;;;;;;1999.90;999.90;;;33.10;42.50;;;;;;5071594;28;20191;-62
2022/06/18 10:12:16;;;;;;;1999.90;999.90;;;33.60;45.70;;;;;;5071059;28;20745;-63
2022/06/18 10:14:44;;;;;;;1999.90;999.90;;;33.50;38.00;;;;;;5071345;28;20190;-62
2022/06/18 10:17:23;;;;;;;1999.90;999.90;;;33.30;7.00;;;;;;5071526;28;20658;-62
2022/06/18 10:20:01;;;;;;;1999.90;999.90;;;33.00;1.00;;;;;;5071301;28;20700;-62
2022/06/18 10:22:39;;;;;;;1999.90;999.90;;;33.10;1.00;;;;;;5071199;28;20621;-62
2022/06/18 10:25:18;;;;;;;1999.90;999.90;;;33.70;19.70;;;;;;5071442;28;20191;-62
2022/06/18 10:27:51;;;;;;;1999.90;999.90;;;33.80;1.00;;;;;;5074719;28;20739;-62
2022/06/18 10:30:25;;;;;;;1999.90;999.90;;;33.80;1.00;;;;;;5074604;28;20190;-62
2022/06/18 10:33:00;;;;;;;1999.90;999.90;;;33.80;1.00;;;;;;5074258;28;20202;-62
2022/06/18 10:35:43;;;;;;;1999.90;999.90;;;33.50;1.00;;;;;;5074465;28;20195;-62
2022/06/18 10:38:25;;;;;;;1999.90;999.90;;;33.90;1.00;;;;;;5074377;28;20221;-63
2022/06/18 10:41:00;;;;;;;1999.90;999.90;;;34.00;1.00;;;;;;5074334;28;20187;-62
2022/06/18 10:43:42;;;;;;;1999.90;999.90;;;33.80;1.00;;;;;;5071522;28;20194;-62
2022/06/18 10:46:14;;;;;;;1999.90;999.90;;;33.50;1.00;;;;;;5073118;28;20189;-62
2022/06/18 10:48:46;;;;;;;1999.90;999.90;;;33.80;1.00;;;;;;5071939;28;20187;-63
2022/06/18 10:51:17;;;;;;;1999.90;999.90;;;34.20;1.00;;;;;;5074043;28;20246;-62
2022/06/18 10:53:48;;;;;;;1999.90;999.90;;;34.10;1.00;;;;;;5073398;28;20655;-62
2022/06/18 10:56:17;;;;;;;1999.90;999.90;;;34.10;1.00;;;;;;5074588;28;20187;-63
2022/06/18 10:58:49;;;;;;;1999.90;999.90;;;34.20;1.00;;;;;;5074486;28;20249;-62
2022/06/18 11:01:23;;;;;;;1999.90;999.90;;;34.10;1.00;;;;;;5074478;28;20210;-62
2022/06/18 11:03:56;;;;;;;1999.90;999.90;;;34.60;1.00;;;;;;5074071;28;20230;-62
2022/06/18 11:06:23;;;;;;;1999.90;999.90;;;34.30;1.00;;;;;;5074386;28;20196;-62
2022/06/18 11:08:53;;;;;;;1999.90;999.90;;;34.40;1.00;;;;;;5073983;28;20199;-63
2022/06/18 11:11:23;;;;;;;1999.90;999.90;;;34.60;1.00;;;;;;5073990;28;20207;-62
2022/06/18 11:13:50;;;;;;;1999.90;999.90;;;34.60;1.00;;;;;;5074134;28;20301;-62
2022/06/18 11:16:21;;;;;;;1999.90;999.90;;;35.50;1.00;;;;;;5074103;28;20289;-62
2022/06/18 11:18:51;;;;;;;1999.90;999.90;;;35.00;1.00;;;;;;5074047;28;20188;-62
2022/06/18 11:21:25;;;;;;;1999.90;999.90;;;34.50;1.00;;;;;;5073635;28;20183;-62
2022/06/18 11:23:56;;;;;;;1999.90;999.90;;;34.90;1.00;;;;;;5074013;28;20190;-62
2022/06/18 11:26:26;;;;;;;1999.90;999.90;;;35.00;1.00;;;;;;5073564;28;20191;-62
2022/06/18 11:28:55;;;;;;;1999.90;999.90;;;34.70;1.00;;;;;;5073510;28;20248;-62
2022/06/18 11:31:29;;;;;;;1999.90;999.90;;;34.10;1.00;;;;;;5073350;28;20550;-62
2022/06/18 11:34:00;;;;;;;1999.90;999.90;;;34.30;1.00;;;;;;5073436;28;20191;-62
2022/06/18 11:36:41;;;;;;;1999.90;999.90;;;34.70;1.00;;;;;;5073663;28;20188;-62
2022/06/18 11:39:26;;;;;;;1999.90;999.90;;;34.70;1.00;;;;;;5073620;28;20194;-63
2022/06/18 11:41:57;;;;;;;1999.90;999.90;;;34.90;1.00;;;;;;5073099;28;20167;-63
2022/06/18 11:44:29;;;;;;;1999.90;999.90;;;34.80;1.00;;;;;;5073488;28;20218;-63
2022/06/18 11:47:04;;;;;;;1999.90;999.90;;;34.70;1.00;;;;;;5073500;28;20179;-63
2022/06/18 11:49:34;;;;;;;1999.90;999.90;;;34.60;1.00;;;;;;5073409;28;20282;-62
2022/06/18 11:52:09;;;;;;;1999.90;999.90;;;35.10;1.00;;;;;;5072538;28;20252;-63
2022/06/18 11:54:41;;;;;;;1999.90;999.90;;;34.40;1.00;;;;;;5073276;28;20191;-63
2022/06/18 11:57:20;;;;;;;1999.90;999.90;;;34.50;1.00;;;;;;5073260;28;20175;-63
2022/06/18 11:59:52;;;;;;;1999.90;999.90;;;34.50;1.00;;;;;;5072908;28;20664;-63
2022/06/18 12:02:25;;;;;;;1999.90;999.90;;;34.80;1.00;;;;;;5072672;28;20189;-62
2022/06/18 12:04:59;;;;;;;1999.90;999.90;;;34.50;1.00;;;;;;5073228;28;20199;-62
2022/06/18 12:07:30;;;;;;;1999.90;999.90;;;34.60;1.00;;;;;;5072714;28;20211;-63
2022/06/18 12:09:58;;;;;;;1999.90;999.90;;;34.60;1.00;;;;;;5073050;28;20184;-63
2022/06/18 12:12:51;;;;;;;1999.90;999.90;;;35.50;1.00;;;;;;5072737;28;20211;-63
2022/06/18 12:15:27;;;;;;;1999.90;999.90;;;35.30;1.00;;;;;;5072881;28;20191;-63
2022/06/18 12:18:00;;;;;;;1999.90;999.90;;;35.60;1.00;;;;;;5072664;28;20620;-63
2022/06/18 12:20:40;;;;;;;1999.90;999.90;;;35.70;1.00;;;;;;5072210;28;20206;-63
2022/06/18 12:23:15;;;;;;;1999.90;999.90;;;35.20;1.00;;;;;;5072433;28;20179;-63
2022/06/18 12:25:52;;;;;;;1999.90;999.90;;;35.30;1.00;;;;;;5072810;28;20280;-63
2022/06/18 12:28:28;;;;;;;1999.90;999.90;;;35.30;1.00;;;;;;5072435;28;20183;-63
2022/06/18 12:31:01;;;;;;;1999.90;999.90;;;35.30;1.00;;;;;;5072711;28;20209;-63